SILO ALERT LOG


Silo ID Alert Type Alert Message Silo Type Points Depth (mm) Strength Temperature (°C) Humidity (%) Height (mm) Volume (㎥) Weight (t) Flag Time
DJSAD17 Humidity 습도센서 측정값이 80% 초과 440 3103 4829 3.7 80.3 4476 445.769 281.815 0 2024-01-10 21:39:29.000
DJHNR03 Temperature 온도센서 상태 이상 호퍼 0 15500 0 -999 -999 -119 0 0 31 2024-01-10 21:39:24.000
DJSSD12 Temperature 온도센서 상태 이상 호퍼 0 11350 0 -999 -999 -120 0 0 31 2024-01-10 21:39:24.000
DJHNR12 Temperature 온도센서 측정값이 0도 미만 호퍼 0 10500 0 -3.8 81.9 -120 0 0 31 2024-01-10 21:39:23.000
DJHNR12 Humidity 습도센서 측정값이 80% 초과 호퍼 0 10500 0 -3.8 81.9 -120 0 0 31 2024-01-10 21:39:23.000
DJSAD01 Humidity 습도센서 측정값이 80% 초과 479 1476 7427 1.2 88.3 7303 302.337 191.138 0 2024-01-10 20:39:40.000
DJSAD03 Humidity 습도센서 측정값이 80% 초과 448 1660 6214 2.4 84.5 7119 294.738 186.333 0 2024-01-10 20:39:39.000
DJSAD08 Humidity 습도센서 측정값이 80% 초과 0 7700 3842 11.2 82.9 -120 -17.075 0 12 2024-01-10 20:39:38.000
DJSAD02 Humidity 습도센서 측정값이 80% 초과 380 1140 4279 2.1 87.4 7639 316.247 199.932 11 2024-01-10 20:39:38.000
DJSAD11 Humidity 습도센서 측정값이 80% 초과 327 1657 3239 1.6 80.2 5922 842.747 532.784 11 2024-01-10 20:39:35.000
DJSSD01 Humidity 습도센서 측정값이 80% 초과 791 2575 4628 5.3 83.2 5504 766.118 484.34 0 2024-01-10 20:39:33.000
DJHNR11 Temperature 온도센서 측정값이 0도 미만 호퍼 234 3230 1069 -3.4 74.3 7149 100.264 63.387 11 2024-01-10 20:39:33.000
DJSSD04 Temperature 온도센서 상태 이상 0 8200 0 -999 -999 -120 -16.702 0 31 2024-01-10 20:39:33.000
DJHNR01 Humidity 습도센서 측정값이 80% 초과 호퍼 471 4307 5016 3.9 99.9 11072 472.84 298.929 13 2024-01-10 20:39:33.000
DJDJD04 Humidity 습도센서 측정값이 80% 초과 277 4200 4452 3.7 81.1 3479 421.55 266.504 11 2024-01-10 20:39:32.000
DJSSD11 Temperature 온도센서 측정값이 0도 미만 호퍼 445 7406 149 -4.1 75.1 3823 28.541 15.555 11 2024-01-10 20:39:32.000
DJSAD16 Humidity 습도센서 측정값이 80% 초과 94 6542 3406 4.1 80.4 1037 103.279 65.293 11 2024-01-10 20:39:32.000
DJSSD05 Temperature 온도센서 측정값이 0도 미만 834 2549 4879 -45.4 43.6 5530 769.749 486.636 0 2024-01-10 20:39:32.000
DJSAD12 Humidity 습도센서 측정값이 80% 초과 0 7700 0 2.9 86.4 -120 -17.075 0 31 2024-01-10 20:39:32.000
DJSSD09 Temperature 온도센서 측정값이 0도 미만 120 2898 3147 -45.4 0 4781 665.453 420.699 11 2024-01-10 20:39:31.000

[첫 페이지] [10012] [10013] [10014] [10015] 10016 [10017] [10018] [10019] [10020] [마지막 페이지]